createdAt,value
2023-03-06T00:00:33.251Z,6.66
2023-03-06T00:02:59.982Z,6.66
2023-03-06T00:05:27.302Z,6.65
2023-03-06T00:07:54.338Z,6.65
2023-03-06T00:10:24.540Z,6.64
2023-03-06T00:12:52.914Z,6.67
2023-03-06T00:15:20.922Z,6.65
2023-03-06T00:17:47.956Z,6.62
2023-03-06T00:20:15.279Z,6.63
2023-03-06T00:22:42.080Z,6.63
2023-03-06T00:25:13.668Z,6.61
2023-03-06T00:27:40.572Z,6.58
2023-03-06T00:30:08.414Z,6.55
2023-03-06T00:32:35.193Z,6.53
2023-03-06T00:35:01.997Z,6.48
2023-03-06T00:37:28.726Z,6.47
2023-03-06T00:39:55.481Z,6.47
2023-03-06T00:42:22.227Z,6.45
2023-03-06T00:44:49.195Z,6.44
2023-03-06T00:47:17.386Z,6.43
2023-03-06T00:49:45.310Z,6.41
2023-03-06T00:52:13.346Z,6.41
2023-03-06T00:54:40.986Z,6.44
2023-03-06T00:57:08.433Z,6.47
2023-03-06T00:59:35.718Z,6.47
2023-03-06T01:02:03.228Z,6.47
2023-03-06T01:04:30.484Z,6.50
2023-03-06T01:06:57.360Z,6.47
2023-03-06T01:09:24.516Z,6.48
2023-03-06T01:11:51.188Z,6.48
2023-03-06T01:15:17.895Z,6.49
2023-03-06T01:18:44.336Z,6.48
2023-03-06T01:21:11.395Z,6.49
2023-03-06T01:23:38.616Z,6.51
2023-03-06T01:26:06.393Z,6.50
2023-03-06T01:28:35.287Z,6.52
2023-03-06T01:31:02.152Z,6.52
2023-03-06T01:33:28.788Z,6.49
2023-03-06T01:35:55.878Z,6.47
2023-03-06T01:38:22.554Z,6.46
2023-03-06T01:40:49.227Z,6.44
2023-03-06T01:43:28.191Z,6.40
2023-03-06T01:46:35.065Z,6.35
2023-03-06T01:49:31.243Z,6.31
2023-03-06T01:52:14.670Z,6.24
2023-03-06T01:54:47.639Z,6.16
2023-03-06T01:57:19.915Z,6.12
2023-03-06T01:59:51.799Z,6.09
2023-03-06T02:02:19.069Z,6.08
2023-03-06T02:04:47.199Z,6.07
2023-03-06T02:07:18.628Z,6.07
2023-03-06T02:09:45.391Z,6.11
2023-03-06T02:12:16.540Z,6.15
2023-03-06T02:14:44.408Z,6.21
2023-03-06T02:17:13.400Z,6.24
2023-03-06T02:19:58.196Z,6.27
2023-03-06T02:22:29.430Z,6.30
2023-03-06T02:25:32.979Z,6.33
2023-03-06T02:28:00.050Z,6.36
2023-03-06T02:30:28.675Z,6.39
2023-03-06T02:32:55.846Z,6.42
2023-03-06T02:35:25.946Z,6.43
2023-03-06T02:37:53.809Z,6.44
2023-03-06T02:40:23.299Z,6.45
2023-03-06T02:42:52.703Z,6.43
2023-03-06T02:45:30.254Z,6.44
2023-03-06T02:47:56.995Z,6.42
2023-03-06T02:50:23.659Z,6.44
2023-03-06T02:52:50.668Z,6.45
2023-03-06T02:55:17.585Z,6.44
2023-03-06T02:57:44.416Z,6.44
2023-03-06T03:00:12.406Z,6.45
2023-03-06T03:02:39.194Z,6.44
2023-03-06T03:05:06.651Z,6.44
2023-03-06T03:07:33.564Z,6.44
2023-03-06T03:10:00.352Z,6.44
2023-03-06T03:12:28.787Z,6.42
2023-03-06T03:14:56.952Z,6.40
2023-03-06T03:17:24.878Z,6.37
2023-03-06T03:19:51.668Z,6.33
2023-03-06T03:22:19.054Z,6.32
2023-03-06T03:24:46.474Z,6.32
2023-03-06T03:27:13.697Z,6.33
2023-03-06T03:29:41.649Z,6.34
2023-03-06T03:32:09.201Z,6.32
2023-03-06T03:34:36.181Z,6.33
2023-03-06T03:37:03.015Z,6.33
2023-03-06T03:39:29.821Z,6.33
2023-03-06T03:41:56.508Z,6.34
2023-03-06T03:44:23.349Z,6.34
2023-03-06T03:46:50.180Z,6.35
2023-03-06T03:49:17.396Z,6.34
2023-03-06T03:51:44.296Z,6.35
2023-03-06T03:54:11.137Z,6.33
2023-03-06T03:56:40.363Z,6.31
2023-03-06T03:59:07.140Z,6.30
2023-03-06T04:01:33.987Z,6.29
2023-03-06T04:04:00.833Z,6.29
2023-03-06T04:06:27.874Z,6.28
2023-03-06T04:08:55.083Z,6.26
2023-03-06T04:11:21.728Z,6.24
2023-03-06T04:13:48.594Z,6.24
2023-03-06T04:16:15.378Z,6.21
2023-03-06T04:18:42.137Z,6.15
2023-03-06T04:21:08.950Z,6.12
2023-03-06T04:23:35.904Z,6.11
2023-03-06T04:26:03.080Z,6.10
2023-03-06T04:28:29.804Z,6.09
2023-03-06T04:30:56.673Z,6.05
2023-03-06T04:33:23.521Z,6.00
2023-03-06T04:35:50.794Z,5.97
2023-03-06T04:38:17.675Z,5.93
2023-03-06T04:40:45.023Z,5.91
2023-03-06T04:43:13.740Z,5.88
2023-03-06T04:45:41.398Z,5.82
2023-03-06T04:48:08.337Z,5.78
2023-03-06T04:50:35.521Z,5.73
2023-03-06T04:53:03.581Z,5.68
2023-03-06T04:55:30.947Z,5.65
2023-03-06T04:57:59.044Z,5.60
2023-03-06T05:00:30.717Z,5.59
2023-03-06T05:02:59.222Z,5.54
2023-03-06T05:05:26.224Z,5.49
2023-03-06T05:07:53.994Z,5.47
2023-03-06T05:10:21.417Z,5.50
2023-03-06T05:12:48.374Z,5.55
2023-03-06T05:15:15.897Z,5.62
2023-03-06T05:17:43.158Z,5.65
2023-03-06T05:20:11.670Z,5.68
2023-03-06T05:22:38.843Z,5.71
2023-03-06T05:25:06.573Z,5.73
2023-03-06T05:27:33.905Z,5.75
2023-03-06T05:30:01.074Z,5.76
2023-03-06T05:32:28.039Z,5.75
2023-03-06T05:34:54.891Z,5.76
2023-03-06T05:37:23.246Z,5.77
2023-03-06T05:39:51.407Z,5.78
2023-03-06T05:42:18.548Z,5.79
2023-03-06T05:44:45.700Z,5.78
2023-03-06T05:47:13.073Z,5.76
2023-03-06T05:49:40.479Z,5.73
2023-03-06T05:52:08.292Z,5.68
2023-03-06T05:54:36.579Z,5.64
2023-03-06T05:57:04.984Z,5.60
2023-03-06T05:59:33.318Z,5.55
2023-03-06T06:02:01.353Z,5.50
2023-03-06T06:04:28.606Z,5.51
2023-03-06T06:06:58.313Z,5.49
2023-03-06T06:09:25.675Z,5.52
2023-03-06T06:11:58.674Z,5.51
2023-03-06T06:14:26.476Z,5.45
2023-03-06T06:16:53.833Z,5.42
2023-03-06T06:19:21.628Z,5.38
2023-03-06T06:21:50.645Z,5.36
2023-03-06T06:24:19.650Z,5.36
2023-03-06T06:26:47.353Z,5.37
2023-03-06T06:29:14.096Z,5.37
2023-03-06T06:31:41.183Z,5.39
2023-03-06T06:34:10.096Z,5.39
2023-03-06T06:36:37.219Z,5.40
2023-03-06T06:39:04.999Z,5.41
2023-03-06T06:41:55.215Z,5.43
2023-03-06T06:44:20.086Z,5.42
2023-03-06T06:49:34.617Z,5.43
2023-03-06T06:52:02.512Z,5.42
2023-03-06T06:54:29.228Z,5.40
2023-03-06T06:56:55.941Z,5.38
2023-03-06T06:59:23.969Z,5.34
2023-03-06T07:01:52.214Z,5.31
2023-03-06T07:04:19.851Z,5.31
2023-03-06T07:06:46.705Z,5.29
2023-03-06T07:09:14.070Z,5.28
2023-03-06T07:11:41.263Z,5.27
2023-03-06T07:14:08.466Z,5.26
2023-03-06T07:16:35.189Z,5.32
2023-03-06T07:19:02.050Z,5.37
2023-03-06T07:21:28.990Z,5.44
2023-03-06T07:23:57.593Z,5.51
2023-03-06T07:26:28.551Z,5.56
2023-03-06T07:28:58.827Z,5.63
2023-03-06T07:31:27.551Z,5.65
2023-03-06T07:33:55.212Z,5.63
2023-03-06T07:36:23.768Z,5.59
2023-03-06T07:38:50.414Z,5.57
2023-03-06T07:41:22.210Z,5.52
2023-03-06T07:43:50.197Z,5.51
2023-03-06T07:46:17.376Z,5.52
2023-03-06T07:48:44.855Z,5.56
2023-03-06T07:51:20.436Z,5.59
2023-03-06T07:53:48.120Z,5.62
2023-03-06T07:56:15.008Z,5.64
2023-03-06T07:58:44.362Z,5.66
2023-03-06T08:01:14.753Z,5.69
2023-03-06T08:03:42.012Z,5.71
2023-03-06T08:06:20.474Z,5.73
2023-03-06T08:08:48.963Z,5.73
2023-03-06T08:11:18.396Z,5.72
2023-03-06T08:13:45.438Z,5.73
2023-03-06T08:16:12.184Z,5.73
2023-03-06T08:18:42.815Z,5.73
2023-03-06T08:21:17.218Z,5.74
2023-03-06T08:23:45.023Z,5.74
2023-03-06T08:26:15.154Z,5.76
2023-03-06T08:28:42.704Z,5.77
2023-03-06T08:31:27.717Z,5.77
2023-03-06T08:33:56.993Z,5.80
2023-03-06T08:36:24.102Z,5.86
2023-03-06T08:38:51.057Z,5.89
2023-03-06T08:41:18.366Z,5.94
2023-03-06T08:43:45.660Z,5.98
2023-03-06T08:46:12.733Z,6.05
2023-03-06T08:48:39.868Z,6.10
2023-03-06T08:51:09.095Z,6.16
2023-03-06T08:53:43.160Z,6.21
2023-03-06T08:56:19.320Z,6.21
2023-03-06T08:58:46.887Z,6.20
2023-03-06T09:01:19.554Z,6.23
2023-03-06T09:03:49.030Z,6.22
2023-03-06T09:06:16.177Z,6.27
2023-03-06T09:08:44.512Z,6.32
2023-03-06T09:11:12.961Z,6.44
2023-03-06T09:13:39.929Z,6.54
2023-03-06T09:16:07.652Z,6.60
2023-03-06T09:18:34.536Z,6.64
2023-03-06T09:21:01.372Z,6.65
2023-03-06T09:23:28.156Z,6.69
2023-03-06T09:26:54.749Z,6.75
2023-03-06T09:29:22.087Z,6.82
2023-03-06T09:31:48.870Z,6.91
2023-03-06T09:34:15.724Z,6.94
2023-03-06T09:36:56.764Z,7.04
2023-03-06T09:39:25.506Z,7.13
2023-03-06T09:41:52.807Z,7.24
2023-03-06T09:44:23.089Z,7.27
2023-03-06T09:47:09.106Z,7.35
2023-03-06T09:50:18.728Z,7.37
2023-03-06T09:53:10.220Z,7.36
2023-03-06T09:55:38.935Z,7.33
2023-03-06T09:58:10.327Z,7.25
2023-03-06T10:00:45.821Z,7.22
2023-03-06T10:03:21.793Z,7.18
2023-03-06T10:05:59.921Z,7.19
2023-03-06T10:08:49.409Z,7.17
2023-03-06T10:11:23.897Z,7.16
2023-03-06T10:13:58.121Z,7.16
2023-03-06T10:16:30.703Z,7.18
2023-03-06T10:19:03.422Z,7.22
2023-03-06T10:22:01.270Z,7.26
2023-03-06T10:24:46.155Z,7.23
2023-03-06T10:27:29.473Z,7.25
2023-03-06T10:30:18.701Z,7.25
2023-03-06T10:33:16.900Z,7.29
2023-03-06T10:35:50.247Z,7.33
2023-03-06T10:38:24.458Z,7.34
2023-03-06T10:41:12.964Z,7.35
2023-03-06T10:43:45.154Z,7.39
2023-03-06T10:46:14.859Z,7.47
2023-03-06T10:48:42.727Z,7.56
2023-03-06T10:51:18.478Z,7.61
2023-03-06T10:54:00.627Z,7.67
2023-03-06T10:56:35.814Z,7.74
2023-03-06T10:59:25.330Z,7.77
2023-03-06T11:01:57.940Z,7.79
2023-03-06T11:04:29.336Z,7.80
2023-03-06T11:07:22.955Z,7.82
2023-03-06T11:09:58.739Z,7.86
2023-03-06T11:12:37.693Z,7.93
2023-03-06T11:15:08.063Z,7.98
2023-03-06T11:17:48.930Z,8.03
2023-03-06T11:20:19.565Z,8.09
2023-03-06T11:22:51.079Z,8.14
2023-03-06T11:25:21.104Z,8.25
2023-03-06T11:27:56.432Z,8.32
2023-03-06T11:30:39.278Z,8.37
2023-03-06T11:33:22.253Z,8.39
2023-03-06T11:36:02.757Z,8.37
2023-03-06T11:38:50.034Z,8.32
2023-03-06T11:41:45.722Z,8.31
2023-03-06T11:44:24.961Z,8.44
2023-03-06T11:47:03.331Z,8.60
2023-03-06T11:49:36.266Z,8.67
2023-03-06T11:52:10.634Z,8.72
2023-03-06T11:54:37.625Z,8.91
2023-03-06T11:57:20.442Z,9.07
2023-03-06T11:59:53.185Z,9.20
2023-03-06T12:02:40.902Z,9.27
2023-03-06T12:05:42.062Z,9.35
2023-03-06T12:08:31.577Z,9.41
2023-03-06T12:11:11.220Z,9.46
2023-03-06T12:16:29.247Z,9.60
2023-03-06T12:19:03.823Z,9.60
2023-03-06T12:22:11.590Z,9.55
2023-03-06T12:24:44.155Z,9.48
2023-03-06T12:27:31.039Z,9.42
2023-03-06T12:30:09.586Z,9.22
2023-03-06T12:33:02.325Z,9.08
2023-03-06T12:35:44.190Z,9.02
2023-03-06T12:38:27.010Z,8.95
2023-03-06T12:41:16.807Z,8.89
2023-03-06T12:44:07.184Z,8.92
2023-03-06T12:46:41.700Z,8.90
2023-03-06T12:49:31.408Z,8.84
2023-03-06T12:52:00.554Z,8.81
2023-03-06T12:54:33.715Z,8.79
2023-03-06T12:57:01.069Z,8.76
2023-03-06T12:59:48.801Z,8.69
2023-03-06T13:02:36.009Z,8.63
2023-03-06T13:05:30.046Z,8.52
2023-03-06T13:08:24.832Z,8.43
2023-03-06T13:11:18.872Z,8.38
2023-03-06T13:13:47.791Z,8.30
2023-03-06T13:16:26.136Z,8.16
2023-03-06T13:18:58.905Z,8.06
2023-03-06T13:21:54.716Z,7.97
2023-03-06T13:24:27.466Z,7.91
2023-03-06T13:27:01.271Z,7.84
2023-03-06T13:29:37.295Z,7.83
2023-03-06T13:32:04.110Z,7.82
2023-03-06T13:34:43.617Z,7.77
2023-03-06T13:37:27.997Z,7.79
2023-03-06T13:39:58.565Z,7.76
2023-03-06T13:42:36.240Z,7.75
2023-03-06T13:45:13.353Z,7.75
2023-03-06T13:48:19.448Z,7.80
2023-03-06T13:50:49.924Z,7.82
2023-03-06T13:53:35.374Z,7.93
2023-03-06T13:56:40.488Z,8.06
2023-03-06T13:59:52.367Z,8.03
2023-03-06T14:02:58.107Z,7.95
2023-03-06T14:05:34.799Z,7.94
2023-03-06T14:08:23.871Z,7.96
2023-03-06T14:11:04.935Z,7.99
2023-03-06T14:13:47.847Z,7.97
2023-03-06T14:16:22.324Z,7.94
2023-03-06T14:18:52.190Z,7.86
2023-03-06T14:21:31.099Z,7.76
2023-03-06T14:24:00.655Z,7.73
2023-03-06T14:26:31.511Z,7.70
2023-03-06T14:29:00.743Z,7.67
2023-03-06T14:31:34.552Z,7.67
2023-03-06T14:34:05.292Z,7.64
2023-03-06T14:36:36.681Z,7.61
2023-03-06T14:39:10.833Z,7.62
2023-03-06T14:41:39.078Z,7.67
2023-03-06T14:44:22.147Z,7.72
2023-03-06T14:46:57.060Z,7.73
2023-03-06T14:49:27.376Z,7.73
2023-03-06T14:51:56.507Z,7.72
2023-03-06T14:54:30.090Z,7.69
2023-03-06T14:57:13.304Z,7.68
2023-03-06T14:59:44.091Z,7.66
2023-03-06T15:02:18.922Z,7.68
2023-03-06T15:04:51.005Z,7.66
2023-03-06T15:07:22.130Z,7.65
2023-03-06T15:09:54.096Z,7.64
2023-03-06T15:12:20.919Z,7.65
2023-03-06T15:15:31.464Z,7.67
2023-03-06T15:18:04.790Z,7.69
2023-03-06T15:20:56.208Z,7.76
2023-03-06T15:23:40.439Z,7.82
2023-03-06T15:26:21.846Z,7.82
2023-03-06T15:29:23.451Z,7.80
2023-03-06T15:31:52.024Z,7.78
2023-03-06T15:34:26.270Z,7.73
2023-03-06T15:36:56.048Z,7.70
2023-03-06T15:39:32.176Z,7.65
2023-03-06T15:42:26.382Z,7.59
2023-03-06T15:44:55.372Z,7.57
2023-03-06T15:47:22.714Z,7.56
2023-03-06T15:49:52.513Z,7.56
2023-03-06T15:52:23.184Z,7.52
2023-03-06T15:54:50.317Z,7.48
2023-03-06T15:57:27.304Z,7.43
2023-03-06T15:59:56.128Z,7.43
2023-03-06T16:02:24.276Z,7.39
2023-03-06T16:04:52.671Z,7.36
2023-03-06T16:07:20.707Z,7.36
2023-03-06T16:09:47.498Z,7.32
2023-03-06T16:12:19.883Z,7.30
2023-03-06T16:14:48.126Z,7.27
2023-03-06T16:17:15.350Z,7.28
2023-03-06T16:19:42.305Z,7.27
2023-03-06T16:22:09.432Z,7.25
2023-03-06T16:24:37.278Z,7.26
2023-03-06T16:27:04.465Z,7.26
2023-03-06T16:29:31.320Z,7.28
2023-03-06T16:31:59.068Z,7.29
2023-03-06T16:34:26.431Z,7.29
2023-03-06T16:36:53.279Z,7.31
2023-03-06T16:39:22.750Z,7.29
2023-03-06T16:41:50.503Z,7.28
2023-03-06T16:44:17.666Z,7.26
2023-03-06T16:46:47.114Z,7.24
2023-03-06T16:49:25.524Z,7.21
2023-03-06T16:51:53.465Z,7.18
2023-03-06T16:54:21.907Z,7.13
2023-03-06T16:56:48.938Z,7.11
2023-03-06T16:59:15.775Z,7.10
2023-03-06T17:01:43.252Z,7.08
2023-03-06T17:04:11.181Z,7.04
2023-03-06T17:06:38.736Z,7.00
2023-03-06T17:09:05.602Z,6.99
2023-03-06T17:11:32.511Z,6.97
2023-03-06T17:13:59.671Z,6.96
2023-03-06T17:16:26.308Z,6.94
2023-03-06T17:18:54.852Z,6.94
2023-03-06T17:21:21.623Z,6.93
2023-03-06T17:23:48.392Z,6.93
2023-03-06T17:26:20.721Z,6.91
2023-03-06T17:28:47.755Z,6.88
2023-03-06T17:31:19.684Z,6.84
2023-03-06T17:33:47.861Z,6.78
2023-03-06T17:36:15.452Z,6.77
2023-03-06T17:38:42.784Z,6.75
2023-03-06T17:41:11.196Z,6.67
2023-03-06T17:43:39.615Z,6.62
2023-03-06T17:46:11.422Z,6.59
2023-03-06T17:48:39.269Z,6.61
2023-03-06T17:51:06.699Z,6.59
2023-03-06T17:53:33.880Z,6.57
2023-03-06T17:56:06.868Z,6.56
2023-03-06T17:58:34.167Z,6.51
2023-03-06T18:01:13.973Z,6.46
2023-03-06T18:03:44.703Z,6.45
2023-03-06T18:06:12.941Z,6.43
2023-03-06T18:08:41.294Z,6.43
2023-03-06T18:11:09.906Z,6.38
2023-03-06T18:13:39.512Z,6.34
2023-03-06T18:16:07.981Z,6.30
2023-03-06T18:18:35.412Z,6.28
2023-03-06T18:21:12.581Z,6.22
2023-03-06T18:23:40.919Z,6.22
2023-03-06T18:26:14.146Z,6.20
2023-03-06T18:28:44.653Z,6.17
2023-03-06T18:31:24.878Z,6.19
2023-03-06T18:34:03.232Z,6.19
2023-03-06T18:36:32.541Z,6.19
2023-03-06T18:39:04.116Z,6.18
2023-03-06T18:41:31.283Z,6.19
2023-03-06T18:44:00.295Z,6.15
2023-03-06T18:46:34.738Z,6.16
2023-03-06T18:49:02.270Z,6.12
2023-03-06T18:51:29.322Z,6.11
2023-03-06T18:54:00.620Z,6.09
2023-03-06T18:56:33.377Z,6.08
2023-03-06T18:59:05.874Z,6.04
2023-03-06T19:01:33.438Z,6.08
2023-03-06T19:04:02.026Z,6.09
2023-03-06T19:06:30.134Z,6.08
2023-03-06T19:09:02.150Z,6.06
2023-03-06T19:11:29.464Z,6.04
2023-03-06T19:13:56.458Z,6.02
2023-03-06T19:16:26.378Z,5.98
2023-03-06T19:18:55.789Z,5.97
2023-03-06T19:21:24.676Z,5.95
2023-03-06T19:23:52.053Z,5.95
2023-03-06T19:26:19.267Z,5.95
2023-03-06T19:28:47.287Z,5.92
2023-03-06T19:31:25.282Z,5.87
2023-03-06T21:08:24.389Z,5.43
2023-03-06T21:10:51.544Z,5.44
2023-03-06T21:13:18.527Z,5.43
2023-03-06T21:15:48.029Z,5.40
2023-03-06T21:18:15.122Z,5.40
2023-03-06T21:20:43.388Z,5.41
2023-03-06T21:23:10.702Z,5.40
2023-03-06T21:25:37.493Z,5.39
2023-03-06T21:28:04.303Z,5.38
2023-03-06T21:30:34.726Z,5.37
2023-03-06T21:33:01.409Z,5.36
2023-03-06T21:35:29.365Z,5.35
2023-03-06T21:37:56.404Z,5.34
2023-03-06T21:40:23.100Z,5.32
2023-03-06T21:42:49.742Z,5.30
2023-03-06T21:45:16.737Z,5.29
2023-03-06T21:47:43.408Z,5.28
2023-03-06T21:50:11.763Z,5.23
2023-03-06T21:52:38.671Z,5.21
2023-03-06T21:55:06.107Z,5.19
2023-03-06T21:57:35.184Z,5.17
2023-03-06T22:00:02.337Z,5.17
2023-03-06T22:02:29.612Z,5.16
2023-03-06T22:04:56.428Z,5.15
2023-03-06T22:07:23.288Z,5.13
2023-03-06T22:09:53.651Z,5.11
2023-03-06T22:12:21.118Z,5.11
2023-03-06T22:14:48.232Z,5.09
2023-03-06T22:17:14.947Z,5.07
2023-03-06T22:19:41.744Z,5.07
2023-03-06T22:22:10.694Z,5.06
2023-03-06T22:24:37.504Z,5.03
2023-03-06T22:27:04.410Z,5.02
2023-03-06T22:29:31.311Z,5.02
2023-03-06T22:31:58.034Z,5.01
2023-03-06T22:34:26.637Z,5.00
2023-03-06T22:36:53.518Z,5.00
2023-03-06T22:39:20.251Z,4.99
2023-03-06T22:41:47.252Z,4.96
2023-03-06T22:44:19.527Z,4.92
2023-03-06T22:46:46.712Z,4.92
2023-03-06T22:49:14.367Z,4.91
2023-03-06T22:51:42.459Z,4.91
2023-03-06T22:54:09.978Z,4.89
2023-03-06T22:56:36.823Z,4.89
2023-03-06T22:59:04.483Z,4.91
2023-03-06T23:01:33.549Z,4.88
2023-03-06T23:04:03.267Z,4.89
2023-03-06T23:06:37.713Z,4.87
2023-03-06T23:09:22.583Z,4.85
2023-03-06T23:11:50.178Z,4.82
2023-03-06T23:14:18.258Z,4.80
2023-03-06T23:16:45.500Z,4.77
2023-03-06T23:19:12.733Z,4.77
2023-03-06T23:21:39.507Z,4.75
2023-03-06T23:24:07.019Z,4.74
2023-03-06T23:26:35.019Z,4.72
2023-03-06T23:29:02.465Z,4.72
2023-03-06T23:31:30.604Z,4.72
2023-03-06T23:34:02.711Z,4.72
2023-03-06T23:36:30.500Z,4.72
2023-03-06T23:38:57.812Z,4.71
2023-03-06T23:41:25.350Z,4.70
2023-03-06T23:43:55.129Z,4.69
2023-03-06T23:46:22.385Z,4.68
2023-03-06T23:48:49.348Z,4.64
2023-03-06T23:51:19.203Z,4.63
2023-03-06T23:53:47.130Z,4.61
2023-03-06T23:56:14.376Z,4.60
2023-03-06T23:58:41.303Z,4.59
